sensor_id;sensor_type;location;lat;lon;timestamp;P1;durP1;ratioP1;P2;durP2;ratioP2
52274;SDS011;38228;50.940;4.024;2023-05-09T00:00:27;15.63;;;10.48;;
52274;SDS011;38228;50.940;4.024;2023-05-09T00:02:53;18.15;;;10.75;;
52274;SDS011;38228;50.940;4.024;2023-05-09T00:05:20;16.08;;;9.90;;
52274;SDS011;38228;50.940;4.024;2023-05-09T00:07:46;16.42;;;10.15;;
52274;SDS011;38228;50.940;4.024;2023-05-09T00:10:12;16.35;;;9.77;;
52274;SDS011;38228;50.940;4.024;2023-05-09T00:12:38;19.67;;;10.77;;
52274;SDS011;38228;50.940;4.024;2023-05-09T00:15:05;18.77;;;10.38;;
52274;SDS011;38228;50.940;4.024;2023-05-09T00:17:32;17.50;;;9.20;;
52274;SDS011;38228;50.940;4.024;2023-05-09T00:20:00;14.30;;;9.27;;
52274;SDS011;38228;50.940;4.024;2023-05-09T00:22:31;15.63;;;9.60;;
52274;SDS011;38228;50.940;4.024;2023-05-09T00:24:57;14.95;;;10.00;;
52274;SDS011;38228;50.940;4.024;2023-05-09T00:27:23;15.70;;;9.98;;
52274;SDS011;38228;50.940;4.024;2023-05-09T00:29:49;16.48;;;10.48;;
52274;SDS011;38228;50.940;4.024;2023-05-09T00:32:14;14.20;;;10.35;;
52274;SDS011;38228;50.940;4.024;2023-05-09T00:34:40;16.88;;;9.57;;
52274;SDS011;38228;50.940;4.024;2023-05-09T00:37:06;14.85;;;10.50;;
52274;SDS011;38228;50.940;4.024;2023-05-09T00:39:32;14.98;;;10.30;;
52274;SDS011;38228;50.940;4.024;2023-05-09T00:41:57;15.15;;;10.07;;
52274;SDS011;38228;50.940;4.024;2023-05-09T00:44:23;19.08;;;10.73;;
52274;SDS011;38228;50.940;4.024;2023-05-09T00:46:49;15.63;;;10.50;;
52274;SDS011;38228;50.940;4.024;2023-05-09T00:49:15;15.70;;;9.77;;
52274;SDS011;38228;50.940;4.024;2023-05-09T00:51:41;14.90;;;10.05;;
52274;SDS011;38228;50.940;4.024;2023-05-09T00:54:07;19.52;;;10.88;;
52274;SDS011;38228;50.940;4.024;2023-05-09T00:56:33;15.02;;;10.48;;
52274;SDS011;38228;50.940;4.024;2023-05-09T00:58:59;14.98;;;10.27;;
52274;SDS011;38228;50.940;4.024;2023-05-09T01:01:24;18.15;;;10.05;;
52274;SDS011;38228;50.940;4.024;2023-05-09T01:03:50;14.85;;;9.82;;
52274;SDS011;38228;50.940;4.024;2023-05-09T01:08:57;14.32;;;9.45;;
52274;SDS011;38228;50.940;4.024;2023-05-09T01:11:38;16.10;;;9.10;;
52274;SDS011;38228;50.940;4.024;2023-05-09T01:17:19;13.05;;;9.18;;
52274;SDS011;38228;50.940;4.024;2023-05-09T01:20:13;20.05;;;10.80;;
52274;SDS011;38228;50.940;4.024;2023-05-09T01:22:44;16.38;;;9.27;;
52274;SDS011;38228;50.940;4.024;2023-05-09T01:25:43;13.95;;;9.93;;
52274;SDS011;38228;50.940;4.024;2023-05-09T01:28:33;16.48;;;10.43;;
52274;SDS011;38228;50.940;4.024;2023-05-09T01:31:05;15.63;;;10.10;;
52274;SDS011;38228;50.940;4.024;2023-05-09T01:33:32;13.57;;;9.75;;
52274;SDS011;38228;50.940;4.024;2023-05-09T01:36:03;14.75;;;10.13;;
52274;SDS011;38228;50.940;4.024;2023-05-09T01:38:32;16.85;;;10.55;;
52274;SDS011;38228;50.940;4.024;2023-05-09T01:41:01;14.50;;;9.95;;
52274;SDS011;38228;50.940;4.024;2023-05-09T01:43:29;15.23;;;10.15;;
52274;SDS011;38228;50.940;4.024;2023-05-09T01:45:57;12.85;;;9.80;;
52274;SDS011;38228;50.940;4.024;2023-05-09T01:48:25;13.77;;;9.70;;
52274;SDS011;38228;50.940;4.024;2023-05-09T01:50:54;13.00;;;10.10;;
52274;SDS011;38228;50.940;4.024;2023-05-09T01:53:21;15.20;;;9.55;;
52274;SDS011;38228;50.940;4.024;2023-05-09T01:55:48;15.75;;;10.23;;
52274;SDS011;38228;50.940;4.024;2023-05-09T01:58:15;15.15;;;9.10;;
52274;SDS011;38228;50.940;4.024;2023-05-09T02:00:42;16.67;;;9.63;;
52274;SDS011;38228;50.940;4.024;2023-05-09T02:03:09;16.58;;;9.40;;
52274;SDS011;38228;50.940;4.024;2023-05-09T02:05:35;12.18;;;9.40;;
52274;SDS011;38228;50.940;4.024;2023-05-09T02:08:02;12.35;;;9.38;;
52274;SDS011;38228;50.940;4.024;2023-05-09T02:10:28;12.88;;;8.88;;
52274;SDS011;38228;50.940;4.024;2023-05-09T02:12:55;18.10;;;9.35;;
52274;SDS011;38228;50.940;4.024;2023-05-09T02:15:21;12.60;;;8.90;;
52274;SDS011;38228;50.940;4.024;2023-05-09T02:17:47;12.25;;;8.35;;
52274;SDS011;38228;50.940;4.024;2023-05-09T02:20:13;14.13;;;8.98;;
52274;SDS011;38228;50.940;4.024;2023-05-09T02:22:39;14.48;;;8.90;;
52274;SDS011;38228;50.940;4.024;2023-05-09T02:25:07;12.98;;;8.88;;
52274;SDS011;38228;50.940;4.024;2023-05-09T02:27:34;13.38;;;8.85;;
52274;SDS011;38228;50.940;4.024;2023-05-09T02:30:03;16.48;;;8.43;;
52274;SDS011;38228;50.940;4.024;2023-05-09T02:32:33;13.25;;;9.20;;
52274;SDS011;38228;50.940;4.024;2023-05-09T02:35:00;13.30;;;8.77;;
52274;SDS011;38228;50.940;4.024;2023-05-09T02:37:28;12.57;;;8.80;;
52274;SDS011;38228;50.940;4.024;2023-05-09T02:39:54;14.82;;;8.65;;
52274;SDS011;38228;50.940;4.024;2023-05-09T02:42:21;13.50;;;8.88;;
52274;SDS011;38228;50.940;4.024;2023-05-09T02:44:49;16.23;;;8.85;;
52274;SDS011;38228;50.940;4.024;2023-05-09T02:47:16;13.65;;;8.73;;
52274;SDS011;38228;50.940;4.024;2023-05-09T02:49:42;15.52;;;8.85;;
52274;SDS011;38228;50.940;4.024;2023-05-09T02:52:08;13.13;;;8.48;;
52274;SDS011;38228;50.940;4.024;2023-05-09T02:54:35;14.32;;;8.27;;
52274;SDS011;38228;50.940;4.024;2023-05-09T02:57:02;14.35;;;8.50;;
52274;SDS011;38228;50.940;4.024;2023-05-09T02:59:28;16.88;;;8.88;;
52274;SDS011;38228;50.940;4.024;2023-05-09T03:01:54;13.43;;;9.00;;
52274;SDS011;38228;50.940;4.024;2023-05-09T03:04:20;14.20;;;9.18;;
52274;SDS011;38228;50.940;4.024;2023-05-09T03:06:46;15.77;;;9.52;;
52274;SDS011;38228;50.940;4.024;2023-05-09T03:09:11;12.93;;;8.68;;
52274;SDS011;38228;50.940;4.024;2023-05-09T03:11:37;14.82;;;8.65;;
52274;SDS011;38228;50.940;4.024;2023-05-09T03:14:03;14.63;;;9.38;;
52274;SDS011;38228;50.940;4.024;2023-05-09T03:16:29;15.10;;;9.43;;
52274;SDS011;38228;50.940;4.024;2023-05-09T03:18:55;12.18;;;8.90;;
52274;SDS011;38228;50.940;4.024;2023-05-09T03:21:21;16.58;;;9.77;;
52274;SDS011;38228;50.940;4.024;2023-05-09T03:23:47;12.68;;;8.82;;
52274;SDS011;38228;50.940;4.024;2023-05-09T03:26:12;14.85;;;9.68;;
52274;SDS011;38228;50.940;4.024;2023-05-09T03:28:38;16.17;;;9.95;;
52274;SDS011;38228;50.940;4.024;2023-05-09T03:31:04;13.88;;;9.57;;
52274;SDS011;38228;50.940;4.024;2023-05-09T03:33:33;14.82;;;10.25;;
52274;SDS011;38228;50.940;4.024;2023-05-09T03:35:59;13.32;;;10.23;;
52274;SDS011;38228;50.940;4.024;2023-05-09T03:38:24;17.05;;;9.95;;
52274;SDS011;38228;50.940;4.024;2023-05-09T03:40:51;13.82;;;10.07;;
52274;SDS011;38228;50.940;4.024;2023-05-09T03:43:17;15.75;;;10.35;;
52274;SDS011;38228;50.940;4.024;2023-05-09T03:45:44;18.52;;;11.20;;
52274;SDS011;38228;50.940;4.024;2023-05-09T03:48:10;16.60;;;11.07;;
52274;SDS011;38228;50.940;4.024;2023-05-09T03:50:36;18.25;;;10.93;;
52274;SDS011;38228;50.940;4.024;2023-05-09T03:53:02;17.40;;;11.00;;
52274;SDS011;38228;50.940;4.024;2023-05-09T03:55:28;20.60;;;11.60;;
52274;SDS011;38228;50.940;4.024;2023-05-09T03:57:54;18.80;;;11.45;;
52274;SDS011;38228;50.940;4.024;2023-05-09T04:00:20;19.25;;;10.82;;
52274;SDS011;38228;50.940;4.024;2023-05-09T04:02:49;19.17;;;12.10;;
52274;SDS011;38228;50.940;4.024;2023-05-09T04:05:15;20.60;;;11.70;;
52274;SDS011;38228;50.940;4.024;2023-05-09T04:07:41;18.52;;;11.27;;
52274;SDS011;38228;50.940;4.024;2023-05-09T04:10:07;22.15;;;11.85;;
52274;SDS011;38228;50.940;4.024;2023-05-09T04:12:33;20.45;;;12.00;;
52274;SDS011;38228;50.940;4.024;2023-05-09T04:14:59;21.33;;;11.73;;
52274;SDS011;38228;50.940;4.024;2023-05-09T04:17:25;20.27;;;12.85;;
52274;SDS011;38228;50.940;4.024;2023-05-09T04:19:51;21.40;;;12.30;;
52274;SDS011;38228;50.940;4.024;2023-05-09T04:22:17;20.35;;;11.85;;
52274;SDS011;38228;50.940;4.024;2023-05-09T04:24:43;19.83;;;12.75;;
52274;SDS011;38228;50.940;4.024;2023-05-09T04:27:08;18.67;;;12.63;;
52274;SDS011;38228;50.940;4.024;2023-05-09T04:29:34;18.48;;;12.77;;
52274;SDS011;38228;50.940;4.024;2023-05-09T04:32:00;19.10;;;12.55;;
52274;SDS011;38228;50.940;4.024;2023-05-09T04:34:27;20.48;;;13.45;;
52274;SDS011;38228;50.940;4.024;2023-05-09T04:36:53;19.25;;;13.65;;
52274;SDS011;38228;50.940;4.024;2023-05-09T04:39:19;22.35;;;13.20;;
52274;SDS011;38228;50.940;4.024;2023-05-09T04:41:45;21.33;;;13.10;;
52274;SDS011;38228;50.940;4.024;2023-05-09T04:44:12;21.35;;;14.65;;
52274;SDS011;38228;50.940;4.024;2023-05-09T04:46:38;20.45;;;13.88;;
52274;SDS011;38228;50.940;4.024;2023-05-09T04:49:04;21.73;;;13.75;;
52274;SDS011;38228;50.940;4.024;2023-05-09T04:51:30;22.90;;;13.48;;
52274;SDS011;38228;50.940;4.024;2023-05-09T04:53:56;20.30;;;13.43;;
52274;SDS011;38228;50.940;4.024;2023-05-09T04:56:21;20.60;;;14.30;;
52274;SDS011;38228;50.940;4.024;2023-05-09T04:58:47;22.58;;;14.27;;
52274;SDS011;38228;50.940;4.024;2023-05-09T05:01:13;22.95;;;13.60;;
52274;SDS011;38228;50.940;4.024;2023-05-09T05:03:40;23.25;;;13.52;;
52274;SDS011;38228;50.940;4.024;2023-05-09T05:06:06;23.17;;;13.48;;
52274;SDS011;38228;50.940;4.024;2023-05-09T05:08:32;23.90;;;13.15;;
52274;SDS011;38228;50.940;4.024;2023-05-09T05:10:58;21.27;;;13.23;;
52274;SDS011;38228;50.940;4.024;2023-05-09T05:13:23;21.80;;;13.40;;
52274;SDS011;38228;50.940;4.024;2023-05-09T05:15:50;22.25;;;13.70;;
52274;SDS011;38228;50.940;4.024;2023-05-09T05:18:16;21.60;;;14.20;;
52274;SDS011;38228;50.940;4.024;2023-05-09T05:20:42;19.92;;;13.38;;
52274;SDS011;38228;50.940;4.024;2023-05-09T05:23:08;18.05;;;12.85;;
52274;SDS011;38228;50.940;4.024;2023-05-09T05:25:34;22.65;;;14.38;;
52274;SDS011;38228;50.940;4.024;2023-05-09T05:28:00;21.05;;;13.27;;
52274;SDS011;38228;50.940;4.024;2023-05-09T05:30:26;24.20;;;13.27;;
52274;SDS011;38228;50.940;4.024;2023-05-09T05:32:52;19.45;;;13.05;;
52274;SDS011;38228;50.940;4.024;2023-05-09T05:35:18;21.02;;;12.68;;
52274;SDS011;38228;50.940;4.024;2023-05-09T05:37:47;18.85;;;12.50;;
52274;SDS011;38228;50.940;4.024;2023-05-09T05:40:12;21.17;;;12.48;;
52274;SDS011;38228;50.940;4.024;2023-05-09T05:42:38;19.15;;;12.32;;
52274;SDS011;38228;50.940;4.024;2023-05-09T05:45:04;18.88;;;11.82;;
52274;SDS011;38228;50.940;4.024;2023-05-09T05:47:31;18.02;;;11.65;;
52274;SDS011;38228;50.940;4.024;2023-05-09T05:49:58;19.90;;;11.93;;
52274;SDS011;38228;50.940;4.024;2023-05-09T05:52:24;14.88;;;11.20;;
52274;SDS011;38228;50.940;4.024;2023-05-09T05:54:53;17.52;;;10.55;;
52274;SDS011;38228;50.940;4.024;2023-05-09T05:57:20;15.07;;;11.02;;
52274;SDS011;38228;50.940;4.024;2023-05-09T05:59:46;14.70;;;10.70;;
52274;SDS011;38228;50.940;4.024;2023-05-09T06:02:13;15.35;;;11.00;;
52274;SDS011;38228;50.940;4.024;2023-05-09T06:04:39;17.40;;;10.45;;
52274;SDS011;38228;50.940;4.024;2023-05-09T06:07:06;17.27;;;10.95;;
52274;SDS011;38228;50.940;4.024;2023-05-09T06:09:41;14.50;;;10.52;;
52274;SDS011;38228;50.940;4.024;2023-05-09T06:12:07;15.52;;;10.27;;
52274;SDS011;38228;50.940;4.024;2023-05-09T06:14:33;14.82;;;10.52;;
52274;SDS011;38228;50.940;4.024;2023-05-09T06:16:58;15.75;;;10.18;;
52274;SDS011;38228;50.940;4.024;2023-05-09T06:19:24;14.68;;;9.77;;
52274;SDS011;38228;50.940;4.024;2023-05-09T06:21:50;12.98;;;9.88;;
52274;SDS011;38228;50.940;4.024;2023-05-09T06:24:16;13.57;;;9.73;;
52274;SDS011;38228;50.940;4.024;2023-05-09T06:26:42;16.88;;;10.07;;
52274;SDS011;38228;50.940;4.024;2023-05-09T06:29:08;12.32;;;9.95;;
52274;SDS011;38228;50.940;4.024;2023-05-09T06:31:34;18.75;;;9.55;;
52274;SDS011;38228;50.940;4.024;2023-05-09T06:34:02;17.98;;;10.23;;
52274;SDS011;38228;50.940;4.024;2023-05-09T06:36:29;13.23;;;9.30;;
52274;SDS011;38228;50.940;4.024;2023-05-09T06:38:56;14.52;;;9.15;;
52274;SDS011;38228;50.940;4.024;2023-05-09T06:41:22;14.57;;;9.32;;
52274;SDS011;38228;50.940;4.024;2023-05-09T06:43:48;13.90;;;9.77;;
52274;SDS011;38228;50.940;4.024;2023-05-09T06:46:14;14.00;;;9.85;;
52274;SDS011;38228;50.940;4.024;2023-05-09T06:48:39;16.20;;;10.48;;
52274;SDS011;38228;50.940;4.024;2023-05-09T06:51:05;15.73;;;9.93;;
52274;SDS011;38228;50.940;4.024;2023-05-09T06:53:31;14.38;;;10.15;;
52274;SDS011;38228;50.940;4.024;2023-05-09T06:55:56;14.07;;;10.15;;
52274;SDS011;38228;50.940;4.024;2023-05-09T06:58:22;12.30;;;9.13;;
52274;SDS011;38228;50.940;4.024;2023-05-09T07:00:48;16.60;;;9.73;;
52274;SDS011;38228;50.940;4.024;2023-05-09T07:03:15;17.55;;;9.93;;
52274;SDS011;38228;50.940;4.024;2023-05-09T07:05:41;11.93;;;9.68;;
52274;SDS011;38228;50.940;4.024;2023-05-09T07:08:06;16.05;;;9.80;;
52274;SDS011;38228;50.940;4.024;2023-05-09T07:10:32;13.90;;;10.27;;
52274;SDS011;38228;50.940;4.024;2023-05-09T07:12:58;14.23;;;10.13;;
52274;SDS011;38228;50.940;4.024;2023-05-09T07:15:24;12.25;;;9.73;;
52274;SDS011;38228;50.940;4.024;2023-05-09T07:17:49;12.23;;;9.30;;
52274;SDS011;38228;50.940;4.024;2023-05-09T07:20:16;15.52;;;9.45;;
52274;SDS011;38228;50.940;4.024;2023-05-09T07:22:42;10.93;;;8.65;;
52274;SDS011;38228;50.940;4.024;2023-05-09T07:25:08;15.73;;;9.80;;
52274;SDS011;38228;50.940;4.024;2023-05-09T07:27:35;11.35;;;8.18;;
52274;SDS011;38228;50.940;4.024;2023-05-09T07:30:02;12.70;;;8.35;;
52274;SDS011;38228;50.940;4.024;2023-05-09T07:32:28;13.02;;;8.57;;
52274;SDS011;38228;50.940;4.024;2023-05-09T07:34:54;16.08;;;8.68;;
52274;SDS011;38228;50.940;4.024;2023-05-09T07:37:20;12.50;;;7.55;;
52274;SDS011;38228;50.940;4.024;2023-05-09T07:39:45;9.55;;;7.93;;
52274;SDS011;38228;50.940;4.024;2023-05-09T07:42:11;9.52;;;7.10;;
52274;SDS011;38228;50.940;4.024;2023-05-09T07:44:38;11.32;;;7.60;;
52274;SDS011;38228;50.940;4.024;2023-05-09T07:47:04;11.23;;;7.97;;
52274;SDS011;38228;50.940;4.024;2023-05-09T07:49:30;13.25;;;8.45;;
52274;SDS011;38228;50.940;4.024;2023-05-09T07:51:56;9.60;;;7.55;;
52274;SDS011;38228;50.940;4.024;2023-05-09T07:54:22;8.77;;;6.95;;
52274;SDS011;38228;50.940;4.024;2023-05-09T07:56:48;9.98;;;7.43;;
52274;SDS011;38228;50.940;4.024;2023-05-09T07:59:14;10.57;;;6.68;;
52274;SDS011;38228;50.940;4.024;2023-05-09T08:01:40;8.77;;;6.55;;
52274;SDS011;38228;50.940;4.024;2023-05-09T08:04:05;16.83;;;6.97;;
52274;SDS011;38228;50.940;4.024;2023-05-09T08:06:33;11.65;;;6.88;;
52274;SDS011;38228;50.940;4.024;2023-05-09T08:08:59;8.43;;;6.65;;
52274;SDS011;38228;50.940;4.024;2023-05-09T08:11:25;12.18;;;7.18;;
52274;SDS011;38228;50.940;4.024;2023-05-09T08:13:50;9.73;;;6.10;;
52274;SDS011;38228;50.940;4.024;2023-05-09T08:16:16;11.10;;;6.00;;
52274;SDS011;38228;50.940;4.024;2023-05-09T08:18:42;10.30;;;5.78;;
52274;SDS011;38228;50.940;4.024;2023-05-09T08:21:08;7.55;;;5.57;;
52274;SDS011;38228;50.940;4.024;2023-05-09T08:23:34;9.68;;;5.78;;
52274;SDS011;38228;50.940;4.024;2023-05-09T08:26:00;9.82;;;5.70;;
52274;SDS011;38228;50.940;4.024;2023-05-09T08:28:26;11.13;;;5.90;;
52274;SDS011;38228;50.940;4.024;2023-05-09T08:30:53;10.75;;;6.50;;
52274;SDS011;38228;50.940;4.024;2023-05-09T08:33:19;10.05;;;5.95;;
52274;SDS011;38228;50.940;4.024;2023-05-09T08:35:49;8.90;;;6.05;;
52274;SDS011;38228;50.940;4.024;2023-05-09T08:38:18;10.57;;;6.40;;
52274;SDS011;38228;50.940;4.024;2023-05-09T08:40:44;11.07;;;5.88;;
52274;SDS011;38228;50.940;4.024;2023-05-09T08:43:09;7.30;;;5.22;;
52274;SDS011;38228;50.940;4.024;2023-05-09T08:45:46;11.57;;;5.78;;
52274;SDS011;38228;50.940;4.024;2023-05-09T08:48:22;9.68;;;5.15;;
52274;SDS011;38228;50.940;4.024;2023-05-09T08:50:48;6.88;;;4.80;;
52274;SDS011;38228;50.940;4.024;2023-05-09T08:53:14;7.03;;;4.63;;
52274;SDS011;38228;50.940;4.024;2023-05-09T08:55:40;5.07;;;4.25;;
52274;SDS011;38228;50.940;4.024;2023-05-09T08:58:07;9.23;;;4.72;;
52274;SDS011;38228;50.940;4.024;2023-05-09T09:00:34;7.38;;;4.07;;
52274;SDS011;38228;50.940;4.024;2023-05-09T09:03:02;6.60;;;4.70;;
52274;SDS011;38228;50.940;4.024;2023-05-09T09:05:37;10.15;;;5.05;;
52274;SDS011;38228;50.940;4.024;2023-05-09T09:08:06;7.40;;;5.10;;
52274;SDS011;38228;50.940;4.024;2023-05-09T09:10:33;7.43;;;5.18;;
52274;SDS011;38228;50.940;4.024;2023-05-09T09:13:00;7.03;;;5.00;;
52274;SDS011;38228;50.940;4.024;2023-05-09T09:15:30;7.22;;;4.93;;
52274;SDS011;38228;50.940;4.024;2023-05-09T09:18:02;7.35;;;5.03;;
52274;SDS011;38228;50.940;4.024;2023-05-09T09:20:33;7.38;;;5.10;;
52274;SDS011;38228;50.940;4.024;2023-05-09T09:23:01;7.70;;;4.88;;
52274;SDS011;38228;50.940;4.024;2023-05-09T09:25:29;11.40;;;5.57;;
52274;SDS011;38228;50.940;4.024;2023-05-09T09:27:55;10.35;;;5.68;;
52274;SDS011;38228;50.940;4.024;2023-05-09T09:30:22;8.77;;;5.53;;
52274;SDS011;38228;50.940;4.024;2023-05-09T09:32:51;10.43;;;5.55;;
52274;SDS011;38228;50.940;4.024;2023-05-09T09:35:17;10.40;;;5.68;;
52274;SDS011;38228;50.940;4.024;2023-05-09T09:37:44;7.07;;;5.10;;
52274;SDS011;38228;50.940;4.024;2023-05-09T09:40:10;14.95;;;5.60;;
52274;SDS011;38228;50.940;4.024;2023-05-09T09:42:43;8.95;;;5.82;;
52274;SDS011;38228;50.940;4.024;2023-05-09T09:45:11;9.68;;;5.20;;
52274;SDS011;38228;50.940;4.024;2023-05-09T09:47:41;6.93;;;5.72;;
52274;SDS011;38228;50.940;4.024;2023-05-09T09:50:15;9.63;;;5.75;;
52274;SDS011;38228;50.940;4.024;2023-05-09T09:52:43;9.38;;;5.10;;
52274;SDS011;38228;50.940;4.024;2023-05-09T09:55:11;7.72;;;5.82;;
52274;SDS011;38228;50.940;4.024;2023-05-09T09:57:37;8.85;;;5.10;;
52274;SDS011;38228;50.940;4.024;2023-05-09T10:00:05;7.40;;;5.80;;
52274;SDS011;38228;50.940;4.024;2023-05-09T10:02:32;7.15;;;4.95;;
52274;SDS011;38228;50.940;4.024;2023-05-09T10:05:07;7.22;;;4.85;;
52274;SDS011;38228;50.940;4.024;2023-05-09T10:07:34;4.97;;;4.40;;
52274;SDS011;38228;50.940;4.024;2023-05-09T10:10:00;6.88;;;4.18;;
52274;SDS011;38228;50.940;4.024;2023-05-09T10:12:31;8.23;;;4.38;;
52274;SDS011;38228;50.940;4.024;2023-05-09T10:15:02;7.95;;;5.20;;
52274;SDS011;38228;50.940;4.024;2023-05-09T10:17:31;5.97;;;3.88;;
52274;SDS011;38228;50.940;4.024;2023-05-09T10:19:57;6.10;;;3.92;;
52274;SDS011;38228;50.940;4.024;2023-05-09T10:22:26;3.85;;;3.45;;
52274;SDS011;38228;50.940;4.024;2023-05-09T10:24:55;5.57;;;3.67;;
52274;SDS011;38228;50.940;4.024;2023-05-09T10:27:27;7.65;;;3.08;;
52274;SDS011;38228;50.940;4.024;2023-05-09T10:30:01;5.05;;;3.00;;
52274;SDS011;38228;50.940;4.024;2023-05-09T10:32:52;3.67;;;2.85;;
52274;SDS011;38228;50.940;4.024;2023-05-09T10:35:28;4.82;;;3.50;;
52274;SDS011;38228;50.940;4.024;2023-05-09T10:37:56;6.50;;;3.15;;
52274;SDS011;38228;50.940;4.024;2023-05-09T10:40:22;5.30;;;2.95;;
52274;SDS011;38228;50.940;4.024;2023-05-09T10:42:48;3.58;;;2.78;;
52274;SDS011;38228;50.940;4.024;2023-05-09T10:45:14;3.58;;;2.70;;
52274;SDS011;38228;50.940;4.024;2023-05-09T10:47:40;4.82;;;2.80;;
52274;SDS011;38228;50.940;4.024;2023-05-09T10:50:08;4.65;;;2.53;;
52274;SDS011;38228;50.940;4.024;2023-05-09T10:55:51;3.30;;;1.83;;
52274;SDS011;38228;50.940;4.024;2023-05-09T10:58:26;3.55;;;2.17;;
52274;SDS011;38228;50.940;4.024;2023-05-09T11:01:02;4.07;;;2.00;;
52274;SDS011;38228;50.940;4.024;2023-05-09T11:03:51;5.95;;;2.25;;
52274;SDS011;38228;50.940;4.024;2023-05-09T11:09:23;3.50;;;2.05;;
52274;SDS011;38228;50.940;4.024;2023-05-09T11:11:54;3.78;;;2.10;;
52274;SDS011;38228;50.940;4.024;2023-05-09T11:14:28;4.63;;;2.38;;
52274;SDS011;38228;50.940;4.024;2023-05-09T11:16:56;3.67;;;2.30;;
52274;SDS011;38228;50.940;4.024;2023-05-09T11:19:36;4.70;;;2.40;;
52274;SDS011;38228;50.940;4.024;2023-05-09T11:22:15;5.15;;;2.35;;
52274;SDS011;38228;50.940;4.024;2023-05-09T11:27:19;3.92;;;2.15;;
52274;SDS011;38228;50.940;4.024;2023-05-09T11:32:26;5.90;;;2.40;;
52274;SDS011;38228;50.940;4.024;2023-05-09T11:35:05;5.60;;;2.13;;
52274;SDS011;38228;50.940;4.024;2023-05-09T11:37:33;4.90;;;1.92;;
52274;SDS011;38228;50.940;4.024;2023-05-09T11:40:14;5.78;;;2.05;;
52274;SDS011;38228;50.940;4.024;2023-05-09T11:42:42;2.20;;;1.77;;
52274;SDS011;38228;50.940;4.024;2023-05-09T11:45:10;3.05;;;2.00;;
52274;SDS011;38228;50.940;4.024;2023-05-09T11:47:37;2.72;;;1.83;;
52274;SDS011;38228;50.940;4.024;2023-05-09T11:50:10;5.45;;;2.65;;
52274;SDS011;38228;50.940;4.024;2023-05-09T11:52:37;3.60;;;2.00;;
52274;SDS011;38228;50.940;4.024;2023-05-09T11:55:07;2.97;;;1.88;;
52274;SDS011;38228;50.940;4.024;2023-05-09T11:57:35;4.22;;;1.85;;
52274;SDS011;38228;50.940;4.024;2023-05-09T12:00:08;2.85;;;1.45;;
52274;SDS011;38228;50.940;4.024;2023-05-09T12:02:36;2.60;;;1.45;;
52274;SDS011;38228;50.940;4.024;2023-05-09T12:05:08;5.05;;;1.70;;
52274;SDS011;38228;50.940;4.024;2023-05-09T12:07:36;4.13;;;1.58;;
52274;SDS011;38228;50.940;4.024;2023-05-09T12:10:07;2.78;;;1.60;;
52274;SDS011;38228;50.940;4.024;2023-05-09T12:12:34;4.22;;;1.70;;
52274;SDS011;38228;50.940;4.024;2023-05-09T12:15:01;3.90;;;1.55;;
52274;SDS011;38228;50.940;4.024;2023-05-09T12:17:28;3.60;;;1.80;;
52274;SDS011;38228;50.940;4.024;2023-05-09T12:19:57;3.53;;;1.92;;
52274;SDS011;38228;50.940;4.024;2023-05-09T12:22:24;4.00;;;1.85;;
52274;SDS011;38228;50.940;4.024;2023-05-09T12:24:50;4.43;;;2.08;;
52274;SDS011;38228;50.940;4.024;2023-05-09T12:27:16;3.08;;;1.90;;
52274;SDS011;38228;50.940;4.024;2023-05-09T12:29:44;3.70;;;2.30;;
52274;SDS011;38228;50.940;4.024;2023-05-09T12:32:15;4.18;;;1.95;;
52274;SDS011;38228;50.940;4.024;2023-05-09T12:34:41;4.13;;;2.47;;
52274;SDS011;38228;50.940;4.024;2023-05-09T12:37:16;3.40;;;2.00;;
52274;SDS011;38228;50.940;4.024;2023-05-09T12:40:04;4.00;;;2.05;;
52274;SDS011;38228;50.940;4.024;2023-05-09T12:42:30;3.97;;;2.08;;
52274;SDS011;38228;50.940;4.024;2023-05-09T12:44:57;3.55;;;2.10;;
52274;SDS011;38228;50.940;4.024;2023-05-09T12:47:27;5.07;;;2.53;;
52274;SDS011;38228;50.940;4.024;2023-05-09T12:50:00;3.92;;;1.95;;
52274;SDS011;38228;50.940;4.024;2023-05-09T12:52:36;3.20;;;2.13;;
52274;SDS011;38228;50.940;4.024;2023-05-09T12:55:10;3.42;;;1.92;;
52274;SDS011;38228;50.940;4.024;2023-05-09T12:57:38;3.10;;;1.50;;
52274;SDS011;38228;50.940;4.024;2023-05-09T13:00:06;3.28;;;1.80;;
52274;SDS011;38228;50.940;4.024;2023-05-09T13:02:37;2.35;;;1.33;;
52274;SDS011;38228;50.940;4.024;2023-05-09T13:05:06;2.33;;;1.35;;
52274;SDS011;38228;50.940;4.024;2023-05-09T13:07:37;3.08;;;1.40;;
52274;SDS011;38228;50.940;4.024;2023-05-09T13:10:14;3.97;;;1.50;;
52274;SDS011;38228;50.940;4.024;2023-05-09T13:15:14;2.17;;;1.10;;
52274;SDS011;38228;50.940;4.024;2023-05-09T13:17:40;3.70;;;1.30;;
52274;SDS011;38228;50.940;4.024;2023-05-09T13:20:07;2.28;;;1.25;;
52274;SDS011;38228;50.940;4.024;2023-05-09T13:22:33;3.53;;;1.25;;
52274;SDS011;38228;50.940;4.024;2023-05-09T13:24:59;3.17;;;1.77;;
52274;SDS011;38228;50.940;4.024;2023-05-09T13:27:25;2.85;;;1.67;;
52274;SDS011;38228;50.940;4.024;2023-05-09T13:29:52;3.58;;;1.30;;
52274;SDS011;38228;50.940;4.024;2023-05-09T13:32:18;7.20;;;1.70;;
52274;SDS011;38228;50.940;4.024;2023-05-09T13:34:43;3.05;;;1.50;;
52274;SDS011;38228;50.940;4.024;2023-05-09T13:37:10;3.35;;;1.17;;
52274;SDS011;38228;50.940;4.024;2023-05-09T13:39:36;6.65;;;2.00;;
52274;SDS011;38228;50.940;4.024;2023-05-09T13:42:01;2.28;;;1.30;;
52274;SDS011;38228;50.940;4.024;2023-05-09T13:44:28;4.43;;;1.38;;
52274;SDS011;38228;50.940;4.024;2023-05-09T13:46:53;2.00;;;1.08;;
52274;SDS011;38228;50.940;4.024;2023-05-09T13:49:21;3.85;;;1.10;;
52274;SDS011;38228;50.940;4.024;2023-05-09T13:51:47;3.15;;;1.20;;
52274;SDS011;38228;50.940;4.024;2023-05-09T13:54:13;1.75;;;1.05;;
52274;SDS011;38228;50.940;4.024;2023-05-09T13:56:42;1.60;;;1.10;;
52274;SDS011;38228;50.940;4.024;2023-05-09T13:59:08;2.88;;;0.95;;
52274;SDS011;38228;50.940;4.024;2023-05-09T14:01:34;1.70;;;0.90;;
52274;SDS011;38228;50.940;4.024;2023-05-09T14:04:00;1.63;;;1.00;;
52274;SDS011;38228;50.940;4.024;2023-05-09T14:06:26;4.03;;;1.10;;
52274;SDS011;38228;50.940;4.024;2023-05-09T14:08:55;1.48;;;0.95;;
52274;SDS011;38228;50.940;4.024;2023-05-09T14:11:21;3.42;;;0.98;;
52274;SDS011;38228;50.940;4.024;2023-05-09T14:13:51;2.42;;;0.82;;
52274;SDS011;38228;50.940;4.024;2023-05-09T14:16:17;1.25;;;0.88;;
52274;SDS011;38228;50.940;4.024;2023-05-09T14:18:44;1.67;;;0.80;;
52274;SDS011;38228;50.940;4.024;2023-05-09T14:21:09;1.00;;;0.60;;
52274;SDS011;38228;50.940;4.024;2023-05-09T14:23:35;4.30;;;0.73;;
52274;SDS011;38228;50.940;4.024;2023-05-09T14:26:01;1.38;;;0.95;;
52274;SDS011;38228;50.940;4.024;2023-05-09T14:28:27;1.48;;;0.63;;
52274;SDS011;38228;50.940;4.024;2023-05-09T14:30:52;2.50;;;0.70;;
52274;SDS011;38228;50.940;4.024;2023-05-09T14:33:18;2.35;;;0.80;;
52274;SDS011;38228;50.940;4.024;2023-05-09T14:35:44;1.38;;;0.90;;
52274;SDS011;38228;50.940;4.024;2023-05-09T14:38:10;2.00;;;0.80;;
52274;SDS011;38228;50.940;4.024;2023-05-09T14:40:37;1.98;;;0.95;;
52274;SDS011;38228;50.940;4.024;2023-05-09T14:43:02;1.50;;;0.90;;
52274;SDS011;38228;50.940;4.024;2023-05-09T14:45:30;3.80;;;1.25;;
52274;SDS011;38228;50.940;4.024;2023-05-09T14:47:59;2.83;;;1.70;;
52274;SDS011;38228;50.940;4.024;2023-05-09T14:50:29;2.00;;;1.05;;
52274;SDS011;38228;50.940;4.024;2023-05-09T14:52:55;1.85;;;1.20;;
52274;SDS011;38228;50.940;4.024;2023-05-09T14:55:20;1.58;;;1.30;;
52274;SDS011;38228;50.940;4.024;2023-05-09T14:57:47;2.78;;;1.08;;